sensor_id;sensor_type;location;lat;lon;timestamp;pressure;altitude;pressure_sealevel;temperature
19282;BMP180;9774;52.034;5.342;2023-04-25T00:00:40;100882.00;;;12.40
19282;BMP180;9774;52.034;5.342;2023-04-25T00:03:09;100883.00;;;12.40
19282;BMP180;9774;52.034;5.342;2023-04-25T00:05:36;100884.00;;;12.40
19282;BMP180;9774;52.034;5.342;2023-04-25T00:08:04;100882.00;;;12.40
19282;BMP180;9774;52.034;5.342;2023-04-25T00:10:32;100890.00;;;12.40
19282;BMP180;9774;52.034;5.342;2023-04-25T00:12:59;100883.00;;;12.40
19282;BMP180;9774;52.034;5.342;2023-04-25T00:15:28;100886.00;;;12.40
19282;BMP180;9774;52.034;5.342;2023-04-25T00:17:56;100888.00;;;12.40
19282;BMP180;9774;52.034;5.342;2023-04-25T00:20:25;100894.00;;;12.40
19282;BMP180;9774;52.034;5.342;2023-04-25T00:22:52;100897.00;;;12.50
19282;BMP180;9774;52.034;5.342;2023-04-25T00:25:20;100902.00;;;12.50
19282;BMP180;9774;52.034;5.342;2023-04-25T00:27:47;100904.00;;;12.50
19282;BMP180;9774;52.034;5.342;2023-04-25T00:30:15;100904.00;;;12.50
19282;BMP180;9774;52.034;5.342;2023-04-25T00:32:42;100910.00;;;12.40
19282;BMP180;9774;52.034;5.342;2023-04-25T00:35:10;100909.00;;;12.40
19282;BMP180;9774;52.034;5.342;2023-04-25T00:37:38;100904.00;;;12.40
19282;BMP180;9774;52.034;5.342;2023-04-25T00:40:07;100901.00;;;12.40
19282;BMP180;9774;52.034;5.342;2023-04-25T00:42:35;100894.00;;;12.40
19282;BMP180;9774;52.034;5.342;2023-04-25T00:45:05;100901.00;;;12.40
19282;BMP180;9774;52.034;5.342;2023-04-25T00:47:33;100895.00;;;12.40
19282;BMP180;9774;52.034;5.342;2023-04-25T00:50:02;100899.00;;;12.40
19282;BMP180;9774;52.034;5.342;2023-04-25T00:52:29;100902.00;;;12.40
19282;BMP180;9774;52.034;5.342;2023-04-25T00:54:58;100904.00;;;12.40
19282;BMP180;9774;52.034;5.342;2023-04-25T00:57:26;100902.00;;;12.40
19282;BMP180;9774;52.034;5.342;2023-04-25T00:59:54;100893.00;;;12.40
19282;BMP180;9774;52.034;5.342;2023-04-25T01:02:22;100898.00;;;12.40
19282;BMP180;9774;52.034;5.342;2023-04-25T01:04:51;100902.00;;;12.40
19282;BMP180;9774;52.034;5.342;2023-04-25T01:07:18;100905.00;;;12.40
19282;BMP180;9774;52.034;5.342;2023-04-25T01:09:46;100896.00;;;12.30
19282;BMP180;9774;52.034;5.342;2023-04-25T01:12:15;100899.00;;;12.30
19282;BMP180;9774;52.034;5.342;2023-04-25T01:14:42;100897.00;;;12.30
19282;BMP180;9774;52.034;5.342;2023-04-25T01:17:11;100894.00;;;12.30
19282;BMP180;9774;52.034;5.342;2023-04-25T01:19:38;100901.00;;;12.30
19282;BMP180;9774;52.034;5.342;2023-04-25T01:22:07;100895.00;;;12.20
19282;BMP180;9774;52.034;5.342;2023-04-25T01:24:36;100900.00;;;12.20
19282;BMP180;9774;52.034;5.342;2023-04-25T01:27:04;100903.00;;;12.20
19282;BMP180;9774;52.034;5.342;2023-04-25T01:29:32;100908.00;;;12.10
19282;BMP180;9774;52.034;5.342;2023-04-25T01:32:00;100910.00;;;12.10
19282;BMP180;9774;52.034;5.342;2023-04-25T01:34:28;100914.00;;;12.10
19282;BMP180;9774;52.034;5.342;2023-04-25T01:36:55;100920.00;;;12.10
19282;BMP180;9774;52.034;5.342;2023-04-25T01:39:24;100922.00;;;12.00
19282;BMP180;9774;52.034;5.342;2023-04-25T01:41:51;100921.00;;;12.00
19282;BMP180;9774;52.034;5.342;2023-04-25T01:44:19;100922.00;;;11.90
19282;BMP180;9774;52.034;5.342;2023-04-25T01:46:46;100927.00;;;11.90
19282;BMP180;9774;52.034;5.342;2023-04-25T01:49:13;100935.00;;;11.90
19282;BMP180;9774;52.034;5.342;2023-04-25T01:51:41;100935.00;;;11.80
19282;BMP180;9774;52.034;5.342;2023-04-25T01:54:08;100942.00;;;11.80
19282;BMP180;9774;52.034;5.342;2023-04-25T01:56:38;100940.00;;;11.70
19282;BMP180;9774;52.034;5.342;2023-04-25T01:59:06;100938.00;;;11.70
19282;BMP180;9774;52.034;5.342;2023-04-25T02:01:33;100941.00;;;11.60
19282;BMP180;9774;52.034;5.342;2023-04-25T02:04:01;100937.00;;;11.60
19282;BMP180;9774;52.034;5.342;2023-04-25T02:06:28;100941.00;;;11.50
19282;BMP180;9774;52.034;5.342;2023-04-25T02:08:56;100945.00;;;11.50
19282;BMP180;9774;52.034;5.342;2023-04-25T02:11:24;100951.00;;;11.50
19282;BMP180;9774;52.034;5.342;2023-04-25T02:13:52;100950.00;;;11.40
19282;BMP180;9774;52.034;5.342;2023-04-25T02:16:22;100955.00;;;11.40
19282;BMP180;9774;52.034;5.342;2023-04-25T02:18:49;100944.00;;;11.40
19282;BMP180;9774;52.034;5.342;2023-04-25T02:21:19;100949.00;;;11.30
19282;BMP180;9774;52.034;5.342;2023-04-25T02:23:47;100940.00;;;11.30
19282;BMP180;9774;52.034;5.342;2023-04-25T02:26:15;100954.00;;;11.30
19282;BMP180;9774;52.034;5.342;2023-04-25T02:28:42;100952.00;;;11.20
19282;BMP180;9774;52.034;5.342;2023-04-25T02:31:11;100955.00;;;11.20
19282;BMP180;9774;52.034;5.342;2023-04-25T02:33:38;100959.00;;;11.20
19282;BMP180;9774;52.034;5.342;2023-04-25T02:36:06;100956.00;;;11.20
19282;BMP180;9774;52.034;5.342;2023-04-25T02:38:34;100955.00;;;11.10
19282;BMP180;9774;52.034;5.342;2023-04-25T02:41:01;100952.00;;;11.10
19282;BMP180;9774;52.034;5.342;2023-04-25T02:43:28;100947.00;;;11.10
19282;BMP180;9774;52.034;5.342;2023-04-25T02:45:56;100946.00;;;11.10
19282;BMP180;9774;52.034;5.342;2023-04-25T02:48:25;100951.00;;;11.10
19282;BMP180;9774;52.034;5.342;2023-04-25T02:50:52;100948.00;;;11.10
19282;BMP180;9774;52.034;5.342;2023-04-25T02:53:19;100954.00;;;11.10
19282;BMP180;9774;52.034;5.342;2023-04-25T02:55:46;100952.00;;;11.10
19282;BMP180;9774;52.034;5.342;2023-04-25T02:58:14;100951.00;;;11.10
19282;BMP180;9774;52.034;5.342;2023-04-25T03:00:41;100942.00;;;11.00
19282;BMP180;9774;52.034;5.342;2023-04-25T03:03:08;100951.00;;;11.00
19282;BMP180;9774;52.034;5.342;2023-04-25T03:05:37;100945.00;;;11.00
19282;BMP180;9774;52.034;5.342;2023-04-25T03:08:04;100956.00;;;11.00
19282;BMP180;9774;52.034;5.342;2023-04-25T03:10:32;100956.00;;;11.00
19282;BMP180;9774;52.034;5.342;2023-04-25T03:12:59;100968.00;;;11.00
19282;BMP180;9774;52.034;5.342;2023-04-25T03:15:26;100961.00;;;11.00
19282;BMP180;9774;52.034;5.342;2023-04-25T03:17:54;100959.00;;;11.00
19282;BMP180;9774;52.034;5.342;2023-04-25T03:20:21;100966.00;;;11.10
19282;BMP180;9774;52.034;5.342;2023-04-25T03:22:50;100964.00;;;11.10
19282;BMP180;9774;52.034;5.342;2023-04-25T03:25:17;100965.00;;;11.10
19282;BMP180;9774;52.034;5.342;2023-04-25T03:27:44;100965.00;;;11.10
19282;BMP180;9774;52.034;5.342;2023-04-25T03:30:12;100970.00;;;11.10
19282;BMP180;9774;52.034;5.342;2023-04-25T03:32:39;100966.00;;;11.10
19282;BMP180;9774;52.034;5.342;2023-04-25T03:35:07;100970.00;;;11.10
19282;BMP180;9774;52.034;5.342;2023-04-25T03:37:34;100972.00;;;11.20
19282;BMP180;9774;52.034;5.342;2023-04-25T03:40:04;100972.00;;;11.20
19282;BMP180;9774;52.034;5.342;2023-04-25T03:42:31;100975.00;;;11.20
19282;BMP180;9774;52.034;5.342;2023-04-25T03:44:59;100972.00;;;11.20
19282;BMP180;9774;52.034;5.342;2023-04-25T03:47:26;100978.00;;;11.30
19282;BMP180;9774;52.034;5.342;2023-04-25T03:49:53;100987.00;;;11.30
19282;BMP180;9774;52.034;5.342;2023-04-25T03:52:21;100982.00;;;11.30
19282;BMP180;9774;52.034;5.342;2023-04-25T03:54:48;100974.00;;;11.30
19282;BMP180;9774;52.034;5.342;2023-04-25T03:57:16;100977.00;;;11.30
19282;BMP180;9774;52.034;5.342;2023-04-25T03:59:44;100980.00;;;11.30
19282;BMP180;9774;52.034;5.342;2023-04-25T04:02:11;100982.00;;;11.30
19282;BMP180;9774;52.034;5.342;2023-04-25T04:04:38;100986.00;;;11.30
19282;BMP180;9774;52.034;5.342;2023-04-25T04:07:06;100990.00;;;11.30
19282;BMP180;9774;52.034;5.342;2023-04-25T04:09:33;100993.00;;;11.40
19282;BMP180;9774;52.034;5.342;2023-04-25T04:12:00;100993.00;;;11.40
19282;BMP180;9774;52.034;5.342;2023-04-25T04:14:29;100993.00;;;11.40
19282;BMP180;9774;52.034;5.342;2023-04-25T04:16:57;100994.00;;;11.40
19282;BMP180;9774;52.034;5.342;2023-04-25T04:19:24;100997.00;;;11.50
19282;BMP180;9774;52.034;5.342;2023-04-25T04:21:51;100997.00;;;11.50
19282;BMP180;9774;52.034;5.342;2023-04-25T04:24:19;100999.00;;;11.50
19282;BMP180;9774;52.034;5.342;2023-04-25T04:26:46;101005.00;;;11.60
19282;BMP180;9774;52.034;5.342;2023-04-25T04:29:13;101009.00;;;11.60
19282;BMP180;9774;52.034;5.342;2023-04-25T04:31:48;101012.00;;;11.60
19282;BMP180;9774;52.034;5.342;2023-04-25T04:34:15;101017.00;;;11.60
19282;BMP180;9774;52.034;5.342;2023-04-25T04:36:43;101025.00;;;11.60
19282;BMP180;9774;52.034;5.342;2023-04-25T04:39:12;101028.00;;;11.60
19282;BMP180;9774;52.034;5.342;2023-04-25T04:41:39;101032.00;;;11.60
19282;BMP180;9774;52.034;5.342;2023-04-25T04:44:07;101024.00;;;11.60
19282;BMP180;9774;52.034;5.342;2023-04-25T04:46:34;101028.00;;;11.60
19282;BMP180;9774;52.034;5.342;2023-04-25T04:49:05;101027.00;;;11.60
19282;BMP180;9774;52.034;5.342;2023-04-25T04:51:32;101029.00;;;11.60
19282;BMP180;9774;52.034;5.342;2023-04-25T04:54:00;101031.00;;;11.60
19282;BMP180;9774;52.034;5.342;2023-04-25T04:56:28;101036.00;;;11.60
19282;BMP180;9774;52.034;5.342;2023-04-25T04:58:56;101041.00;;;11.60
19282;BMP180;9774;52.034;5.342;2023-04-25T05:01:24;101035.00;;;11.70
19282;BMP180;9774;52.034;5.342;2023-04-25T05:03:52;101049.00;;;11.70
19282;BMP180;9774;52.034;5.342;2023-04-25T05:06:20;101040.00;;;11.70
19282;BMP180;9774;52.034;5.342;2023-04-25T05:08:48;101040.00;;;11.70
19282;BMP180;9774;52.034;5.342;2023-04-25T05:11:15;101049.00;;;11.80
19282;BMP180;9774;52.034;5.342;2023-04-25T05:13:42;101049.00;;;11.80
19282;BMP180;9774;52.034;5.342;2023-04-25T05:16:10;101055.00;;;11.80
19282;BMP180;9774;52.034;5.342;2023-04-25T05:18:37;101061.00;;;11.90
19282;BMP180;9774;52.034;5.342;2023-04-25T05:21:04;101069.00;;;11.90
19282;BMP180;9774;52.034;5.342;2023-04-25T05:23:33;101062.00;;;11.90
19282;BMP180;9774;52.034;5.342;2023-04-25T05:26:01;101069.00;;;12.00
19282;BMP180;9774;52.034;5.342;2023-04-25T05:28:28;101076.00;;;12.00
19282;BMP180;9774;52.034;5.342;2023-04-25T05:30:55;101077.00;;;12.00
19282;BMP180;9774;52.034;5.342;2023-04-25T05:33:23;101073.00;;;12.10
19282;BMP180;9774;52.034;5.342;2023-04-25T05:35:50;101073.00;;;12.10
19282;BMP180;9774;52.034;5.342;2023-04-25T05:38:17;101079.00;;;12.10
19282;BMP180;9774;52.034;5.342;2023-04-25T05:40:46;101086.00;;;12.20
19282;BMP180;9774;52.034;5.342;2023-04-25T05:43:13;101083.00;;;12.20
19282;BMP180;9774;52.034;5.342;2023-04-25T05:45:41;101087.00;;;12.20
19282;BMP180;9774;52.034;5.342;2023-04-25T05:48:08;101088.00;;;12.20
19282;BMP180;9774;52.034;5.342;2023-04-25T05:50:36;101090.00;;;12.30
19282;BMP180;9774;52.034;5.342;2023-04-25T05:53:03;101091.00;;;12.30
19282;BMP180;9774;52.034;5.342;2023-04-25T05:55:31;101083.00;;;12.30
19282;BMP180;9774;52.034;5.342;2023-04-25T05:58:00;101094.00;;;12.40
19282;BMP180;9774;52.034;5.342;2023-04-25T06:00:27;101090.00;;;12.40
19282;BMP180;9774;52.034;5.342;2023-04-25T06:02:55;101093.00;;;12.50
19282;BMP180;9774;52.034;5.342;2023-04-25T06:05:22;101106.00;;;12.50
19282;BMP180;9774;52.034;5.342;2023-04-25T06:07:50;101103.00;;;12.60
19282;BMP180;9774;52.034;5.342;2023-04-25T06:10:17;101109.00;;;12.60
19282;BMP180;9774;52.034;5.342;2023-04-25T06:12:44;101114.00;;;12.70
19282;BMP180;9774;52.034;5.342;2023-04-25T06:15:13;101110.00;;;12.70
19282;BMP180;9774;52.034;5.342;2023-04-25T06:17:41;101121.00;;;12.80
19282;BMP180;9774;52.034;5.342;2023-04-25T06:20:09;101125.00;;;12.80
19282;BMP180;9774;52.034;5.342;2023-04-25T06:22:37;101123.00;;;12.90
19282;BMP180;9774;52.034;5.342;2023-04-25T06:25:05;101125.00;;;12.90
19282;BMP180;9774;52.034;5.342;2023-04-25T06:27:33;101135.00;;;12.90
19282;BMP180;9774;52.034;5.342;2023-04-25T06:30:00;101129.00;;;12.90
19282;BMP180;9774;52.034;5.342;2023-04-25T06:32:29;101131.00;;;13.00
19282;BMP180;9774;52.034;5.342;2023-04-25T06:34:56;101124.00;;;13.00
19282;BMP180;9774;52.034;5.342;2023-04-25T06:37:24;101135.00;;;13.00
19282;BMP180;9774;52.034;5.342;2023-04-25T06:39:51;101132.00;;;13.00
19282;BMP180;9774;52.034;5.342;2023-04-25T06:42:18;101135.00;;;13.00
19282;BMP180;9774;52.034;5.342;2023-04-25T06:44:46;101133.00;;;13.10
19282;BMP180;9774;52.034;5.342;2023-04-25T06:47:13;101146.00;;;13.10
19282;BMP180;9774;52.034;5.342;2023-04-25T06:49:42;101148.00;;;13.10
19282;BMP180;9774;52.034;5.342;2023-04-25T06:52:09;101147.00;;;13.20
19282;BMP180;9774;52.034;5.342;2023-04-25T06:54:36;101151.00;;;13.20
19282;BMP180;9774;52.034;5.342;2023-04-25T06:57:04;101153.00;;;13.20
19282;BMP180;9774;52.034;5.342;2023-04-25T06:59:31;101159.00;;;13.30
19282;BMP180;9774;52.034;5.342;2023-04-25T07:01:58;101160.00;;;13.30
19282;BMP180;9774;52.034;5.342;2023-04-25T07:04:26;101158.00;;;13.30
19282;BMP180;9774;52.034;5.342;2023-04-25T07:06:54;101169.00;;;13.30
19282;BMP180;9774;52.034;5.342;2023-04-25T07:09:22;101164.00;;;13.30
19282;BMP180;9774;52.034;5.342;2023-04-25T07:11:49;101161.00;;;13.40
19282;BMP180;9774;52.034;5.342;2023-04-25T07:14:17;101164.00;;;13.40
19282;BMP180;9774;52.034;5.342;2023-04-25T07:16:44;101157.00;;;13.50
19282;BMP180;9774;52.034;5.342;2023-04-25T07:19:11;101178.00;;;13.50
19282;BMP180;9774;52.034;5.342;2023-04-25T07:21:38;101182.00;;;13.60
19282;BMP180;9774;52.034;5.342;2023-04-25T07:24:07;101183.00;;;13.60
19282;BMP180;9774;52.034;5.342;2023-04-25T07:26:34;101186.00;;;13.70
19282;BMP180;9774;52.034;5.342;2023-04-25T07:29:02;101184.00;;;13.80
19282;BMP180;9774;52.034;5.342;2023-04-25T07:31:29;101185.00;;;13.90
19282;BMP180;9774;52.034;5.342;2023-04-25T07:33:56;101185.00;;;14.10
19282;BMP180;9774;52.034;5.342;2023-04-25T07:36:24;101185.00;;;14.20
19282;BMP180;9774;52.034;5.342;2023-04-25T07:38:52;101187.00;;;14.40
19282;BMP180;9774;52.034;5.342;2023-04-25T07:41:21;101182.00;;;14.60
19282;BMP180;9774;52.034;5.342;2023-04-25T07:43:49;101191.00;;;14.70
19282;BMP180;9774;52.034;5.342;2023-04-25T07:46:16;101194.00;;;14.80
19282;BMP180;9774;52.034;5.342;2023-04-25T07:48:43;101192.00;;;14.90
19282;BMP180;9774;52.034;5.342;2023-04-25T07:51:11;101195.00;;;15.00
19282;BMP180;9774;52.034;5.342;2023-04-25T07:53:38;101194.00;;;15.00
19282;BMP180;9774;52.034;5.342;2023-04-25T07:56:06;101205.00;;;15.10
19282;BMP180;9774;52.034;5.342;2023-04-25T07:58:36;101215.00;;;15.10
19282;BMP180;9774;52.034;5.342;2023-04-25T08:01:03;101220.00;;;15.20
19282;BMP180;9774;52.034;5.342;2023-04-25T08:03:31;101221.00;;;15.10
19282;BMP180;9774;52.034;5.342;2023-04-25T08:05:58;101222.00;;;15.10
19282;BMP180;9774;52.034;5.342;2023-04-25T08:08:25;101228.00;;;15.10
19282;BMP180;9774;52.034;5.342;2023-04-25T08:10:53;101225.00;;;15.10
19282;BMP180;9774;52.034;5.342;2023-04-25T08:13:20;101231.00;;;15.20
19282;BMP180;9774;52.034;5.342;2023-04-25T08:15:49;101238.00;;;15.20
19282;BMP180;9774;52.034;5.342;2023-04-25T08:18:16;101244.00;;;15.30
19282;BMP180;9774;52.034;5.342;2023-04-25T08:20:43;101243.00;;;15.30
19282;BMP180;9774;52.034;5.342;2023-04-25T08:23:11;101245.00;;;15.30
19282;BMP180;9774;52.034;5.342;2023-04-25T08:25:38;101254.00;;;15.30
19282;BMP180;9774;52.034;5.342;2023-04-25T08:28:06;101249.00;;;15.30
19282;BMP180;9774;52.034;5.342;2023-04-25T08:30:33;101251.00;;;15.30
19282;BMP180;9774;52.034;5.342;2023-04-25T08:33:02;101249.00;;;15.20
19282;BMP180;9774;52.034;5.342;2023-04-25T08:35:29;101255.00;;;15.20
19282;BMP180;9774;52.034;5.342;2023-04-25T08:37:56;101249.00;;;15.30
19282;BMP180;9774;52.034;5.342;2023-04-25T08:40:23;101268.00;;;15.40
19282;BMP180;9774;52.034;5.342;2023-04-25T08:42:56;101259.00;;;15.50
19282;BMP180;9774;52.034;5.342;2023-04-25T08:45:25;101270.00;;;15.50
19282;BMP180;9774;52.034;5.342;2023-04-25T08:47:53;101282.00;;;15.50
19282;BMP180;9774;52.034;5.342;2023-04-25T08:50:24;101284.00;;;15.50
19282;BMP180;9774;52.034;5.342;2023-04-25T08:52:54;101286.00;;;15.60
19282;BMP180;9774;52.034;5.342;2023-04-25T08:55:22;101292.00;;;15.60
19282;BMP180;9774;52.034;5.342;2023-04-25T08:57:50;101293.00;;;15.60
19282;BMP180;9774;52.034;5.342;2023-04-25T09:00:19;101301.00;;;15.60
19282;BMP180;9774;52.034;5.342;2023-04-25T09:02:47;101298.00;;;15.60
19282;BMP180;9774;52.034;5.342;2023-04-25T09:05:15;101318.00;;;15.60
19282;BMP180;9774;52.034;5.342;2023-04-25T09:07:43;101327.00;;;15.50
19282;BMP180;9774;52.034;5.342;2023-04-25T09:10:10;101323.00;;;15.50
19282;BMP180;9774;52.034;5.342;2023-04-25T09:12:38;101331.00;;;15.40
19282;BMP180;9774;52.034;5.342;2023-04-25T09:15:07;101331.00;;;15.40
19282;BMP180;9774;52.034;5.342;2023-04-25T09:17:35;101330.00;;;15.30
19282;BMP180;9774;52.034;5.342;2023-04-25T09:20:07;101326.00;;;15.30
19282;BMP180;9774;52.034;5.342;2023-04-25T09:22:35;101329.00;;;15.30
19282;BMP180;9774;52.034;5.342;2023-04-25T09:25:08;101332.00;;;15.40
19282;BMP180;9774;52.034;5.342;2023-04-25T09:27:35;101320.00;;;15.40
19282;BMP180;9774;52.034;5.342;2023-04-25T09:30:03;101321.00;;;15.50
19282;BMP180;9774;52.034;5.342;2023-04-25T09:32:31;101325.00;;;15.60
19282;BMP180;9774;52.034;5.342;2023-04-25T09:34:58;101331.00;;;15.70
19282;BMP180;9774;52.034;5.342;2023-04-25T09:37:28;101325.00;;;15.80
19282;BMP180;9774;52.034;5.342;2023-04-25T09:39:56;101327.00;;;15.90
19282;BMP180;9774;52.034;5.342;2023-04-25T09:42:27;101325.00;;;16.10
19282;BMP180;9774;52.034;5.342;2023-04-25T09:44:58;101331.00;;;16.30
19282;BMP180;9774;52.034;5.342;2023-04-25T09:47:27;101323.00;;;16.40
19282;BMP180;9774;52.034;5.342;2023-04-25T09:49:55;101343.00;;;16.60
19282;BMP180;9774;52.034;5.342;2023-04-25T09:52:23;101332.00;;;16.70
19282;BMP180;9774;52.034;5.342;2023-04-25T09:54:52;101341.00;;;16.80
19282;BMP180;9774;52.034;5.342;2023-04-25T09:57:21;101357.00;;;16.90
19282;BMP180;9774;52.034;5.342;2023-04-25T09:59:51;101358.00;;;16.90
19282;BMP180;9774;52.034;5.342;2023-04-25T10:02:19;101364.00;;;16.90
19282;BMP180;9774;52.034;5.342;2023-04-25T10:04:50;101383.00;;;16.80
19282;BMP180;9774;52.034;5.342;2023-04-25T10:07:19;101385.00;;;16.80
19282;BMP180;9774;52.034;5.342;2023-04-25T10:09:49;101389.00;;;16.70
19282;BMP180;9774;52.034;5.342;2023-04-25T10:12:17;101390.00;;;16.60
19282;BMP180;9774;52.034;5.342;2023-04-25T10:14:45;101397.00;;;16.60
19282;BMP180;9774;52.034;5.342;2023-04-25T10:17:14;101387.00;;;16.60
19282;BMP180;9774;52.034;5.342;2023-04-25T10:19:42;101390.00;;;16.60
19282;BMP180;9774;52.034;5.342;2023-04-25T10:22:13;101389.00;;;16.50
19282;BMP180;9774;52.034;5.342;2023-04-25T10:24:42;101376.00;;;16.60
19282;BMP180;9774;52.034;5.342;2023-04-25T10:27:11;101385.00;;;16.60
19282;BMP180;9774;52.034;5.342;2023-04-25T10:29:39;101385.00;;;16.70
19282;BMP180;9774;52.034;5.342;2023-04-25T10:32:08;101378.00;;;16.70
19282;BMP180;9774;52.034;5.342;2023-04-25T10:34:41;101382.00;;;16.70
19282;BMP180;9774;52.034;5.342;2023-04-25T10:37:12;101384.00;;;16.80
19282;BMP180;9774;52.034;5.342;2023-04-25T10:39:40;101383.00;;;16.80
19282;BMP180;9774;52.034;5.342;2023-04-25T10:42:08;101390.00;;;16.80
19282;BMP180;9774;52.034;5.342;2023-04-25T10:44:37;101387.00;;;16.80
19282;BMP180;9774;52.034;5.342;2023-04-25T10:47:07;101396.00;;;16.80
19282;BMP180;9774;52.034;5.342;2023-04-25T10:49:36;101385.00;;;16.90
19282;BMP180;9774;52.034;5.342;2023-04-25T10:52:19;101397.00;;;16.90
19282;BMP180;9774;52.034;5.342;2023-04-25T10:54:53;101397.00;;;17.00
19282;BMP180;9774;52.034;5.342;2023-04-25T10:57:30;101392.00;;;17.00
19282;BMP180;9774;52.034;5.342;2023-04-25T11:00:00;101392.00;;;17.10
19282;BMP180;9774;52.034;5.342;2023-04-25T11:02:29;101392.00;;;17.20
19282;BMP180;9774;52.034;5.342;2023-04-25T11:04:57;101398.00;;;17.20
19282;BMP180;9774;52.034;5.342;2023-04-25T11:07:33;101391.00;;;17.10
19282;BMP180;9774;52.034;5.342;2023-04-25T11:10:02;101390.00;;;17.10
19282;BMP180;9774;52.034;5.342;2023-04-25T11:12:31;101401.00;;;17.00
19282;BMP180;9774;52.034;5.342;2023-04-25T11:15:02;101406.00;;;16.90
19282;BMP180;9774;52.034;5.342;2023-04-25T11:17:30;101400.00;;;16.90
19282;BMP180;9774;52.034;5.342;2023-04-25T11:19:57;101390.00;;;17.00
19282;BMP180;9774;52.034;5.342;2023-04-25T11:22:27;101392.00;;;17.10
19282;BMP180;9774;52.034;5.342;2023-04-25T11:24:55;101392.00;;;17.20
19282;BMP180;9774;52.034;5.342;2023-04-25T11:27:23;101407.00;;;17.30
19282;BMP180;9774;52.034;5.342;2023-04-25T11:29:52;101408.00;;;17.30
19282;BMP180;9774;52.034;5.342;2023-04-25T11:32:20;101424.00;;;17.30
19282;BMP180;9774;52.034;5.342;2023-04-25T11:34:47;101429.00;;;17.30
19282;BMP180;9774;52.034;5.342;2023-04-25T11:37:14;101432.00;;;17.20
19282;BMP180;9774;52.034;5.342;2023-04-25T11:39:47;101443.00;;;17.20
19282;BMP180;9774;52.034;5.342;2023-04-25T11:42:15;101431.00;;;17.20
19282;BMP180;9774;52.034;5.342;2023-04-25T11:44:43;101434.00;;;17.10
19282;BMP180;9774;52.034;5.342;2023-04-25T11:47:10;101436.00;;;17.10
19282;BMP180;9774;52.034;5.342;2023-04-25T11:49:39;101438.00;;;17.10
19282;BMP180;9774;52.034;5.342;2023-04-25T11:52:07;101435.00;;;17.10
19282;BMP180;9774;52.034;5.342;2023-04-25T11:54:36;101444.00;;;17.20
19282;BMP180;9774;52.034;5.342;2023-04-25T11:57:05;101424.00;;;17.10
19282;BMP180;9774;52.034;5.342;2023-04-25T11:59:32;101431.00;;;17.20
19282;BMP180;9774;52.034;5.342;2023-04-25T12:01:59;101439.00;;;17.20
19282;BMP180;9774;52.034;5.342;2023-04-25T12:04:30;101434.00;;;17.20
19282;BMP180;9774;52.034;5.342;2023-04-25T12:06:59;101426.00;;;17.30
19282;BMP180;9774;52.034;5.342;2023-04-25T12:09:32;101429.00;;;17.40
19282;BMP180;9774;52.034;5.342;2023-04-25T12:12:00;101443.00;;;17.50
19282;BMP180;9774;52.034;5.342;2023-04-25T12:14:31;101446.00;;;17.60
19282;BMP180;9774;52.034;5.342;2023-04-25T12:17:01;101451.00;;;17.70
19282;BMP180;9774;52.034;5.342;2023-04-25T12:19:33;101469.00;;;17.70
19282;BMP180;9774;52.034;5.342;2023-04-25T12:22:01;101462.00;;;17.80
19282;BMP180;9774;52.034;5.342;2023-04-25T12:24:29;101456.00;;;17.80
19282;BMP180;9774;52.034;5.342;2023-04-25T12:27:00;101471.00;;;17.80
19282;BMP180;9774;52.034;5.342;2023-04-25T12:29:31;101472.00;;;17.80
19282;BMP180;9774;52.034;5.342;2023-04-25T12:32:00;101463.00;;;17.80
19282;BMP180;9774;52.034;5.342;2023-04-25T12:34:28;101474.00;;;17.90
19282;BMP180;9774;52.034;5.342;2023-04-25T12:36:57;101474.00;;;17.90
19282;BMP180;9774;52.034;5.342;2023-04-25T12:39:25;101474.00;;;18.00
19282;BMP180;9774;52.034;5.342;2023-04-25T12:41:53;101467.00;;;18.20
19282;BMP180;9774;52.034;5.342;2023-04-25T12:44:20;101478.00;;;18.40
19282;BMP180;9774;52.034;5.342;2023-04-25T12:46:49;101483.00;;;18.40
19282;BMP180;9774;52.034;5.342;2023-04-25T12:49:17;101490.00;;;18.50
19282;BMP180;9774;52.034;5.342;2023-04-25T12:51:44;101485.00;;;18.50
19282;BMP180;9774;52.034;5.342;2023-04-25T12:54:11;101486.00;;;18.50
19282;BMP180;9774;52.034;5.342;2023-04-25T12:56:41;101477.00;;;18.40
19282;BMP180;9774;52.034;5.342;2023-04-25T12:59:08;101476.00;;;18.40
19282;BMP180;9774;52.034;5.342;2023-04-25T13:01:35;101478.00;;;18.30
19282;BMP180;9774;52.034;5.342;2023-04-25T13:04:04;101465.00;;;18.20
19282;BMP180;9774;52.034;5.342;2023-04-25T13:06:32;101472.00;;;18.20
19282;BMP180;9774;52.034;5.342;2023-04-25T13:08:59;101465.00;;;18.30
19282;BMP180;9774;52.034;5.342;2023-04-25T13:11:27;101474.00;;;18.40
19282;BMP180;9774;52.034;5.342;2023-04-25T13:13:55;101481.00;;;18.50
19282;BMP180;9774;52.034;5.342;2023-04-25T13:16:22;101467.00;;;18.50
19282;BMP180;9774;52.034;5.342;2023-04-25T13:18:50;101463.00;;;18.60
19282;BMP180;9774;52.034;5.342;2023-04-25T13:21:18;101478.00;;;18.60
19282;BMP180;9774;52.034;5.342;2023-04-25T13:23:46;101466.00;;;18.50
19282;BMP180;9774;52.034;5.342;2023-04-25T13:26:13;101479.00;;;18.50
19282;BMP180;9774;52.034;5.342;2023-04-25T13:28:41;101471.00;;;18.50
19282;BMP180;9774;52.034;5.342;2023-04-25T13:31:08;101473.00;;;18.50
19282;BMP180;9774;52.034;5.342;2023-04-25T13:33:35;101474.00;;;18.60
19282;BMP180;9774;52.034;5.342;2023-04-25T13:36:03;101479.00;;;18.80
19282;BMP180;9774;52.034;5.342;2023-04-25T13:38:32;101488.00;;;19.10
19282;BMP180;9774;52.034;5.342;2023-04-25T13:41:00;101468.00;;;19.60
19282;BMP180;9774;52.034;5.342;2023-04-25T13:43:27;101470.00;;;20.10
19282;BMP180;9774;52.034;5.342;2023-04-25T13:45:54;101488.00;;;20.70
19282;BMP180;9774;52.034;5.342;2023-04-25T13:48:21;101482.00;;;21.30
19282;BMP180;9774;52.034;5.342;2023-04-25T13:50:49;101466.00;;;22.30
19282;BMP180;9774;52.034;5.342;2023-04-25T13:53:16;101478.00;;;23.10
19282;BMP180;9774;52.034;5.342;2023-04-25T13:55:45;101486.00;;;23.60
19282;BMP180;9774;52.034;5.342;2023-04-25T13:58:12;101476.00;;;24.10
19282;BMP180;9774;52.034;5.342;2023-04-25T14:00:40;101474.00;;;24.40
19282;BMP180;9774;52.034;5.342;2023-04-25T14:03:09;101477.00;;;24.80
19282;BMP180;9774;52.034;5.342;2023-04-25T14:05:37;101493.00;;;25.20
19282;BMP180;9774;52.034;5.342;2023-04-25T14:08:06;101496.00;;;25.40
19282;BMP180;9774;52.034;5.342;2023-04-25T14:10:33;101491.00;;;25.40
19282;BMP180;9774;52.034;5.342;2023-04-25T14:13:04;101506.00;;;25.40